Time;durP1;ratioP1;P1;durP2;ratioP2;P2;SDS_P1;SDS_P2;PMS_P1;PMS_P2;Temp;Humidity;BMP_temperature;BMP_pressure;BME280_temperature;BME280_humidity;BME280_pressure;Samples;Min_cycle;Max_cycle;Signal;HPM_P1;HPM_P2
2022/12/29 00:00:11;;;;;;;29.33;19.43;;;;;;;6.15;79.58;98082.44;4895130;29;20193;-71
2022/12/29 00:02:41;;;;;;;29.33;19.37;;;;;;;6.15;79.35;98079.00;4895753;29;20199;-71
2022/12/29 00:05:08;;;;;;;32.13;20.10;;;;;;;6.02;78.98;98083.44;4894687;29;20300;-73
2022/12/29 00:07:36;;;;;;;27.40;19.17;;;;;;;6.07;79.59;98083.38;4895346;29;20254;-73
2022/12/29 00:10:04;;;;;;;31.77;19.03;;;;;;;6.05;78.89;98082.56;4878068;29;20682;-73
2022/12/29 00:15:36;;;;;;;32.20;19.73;;;;;;;6.08;79.82;98085.94;4894842;29;20706;-73
2022/12/29 00:18:03;;;;;;;28.67;19.37;;;;;;;5.95;79.68;98084.38;4894765;29;20198;-74
2022/12/29 00:37:15;;;;;;;38.57;21.07;;;;;;;6.12;80.08;98087.59;4878281;29;20248;-73
2022/12/29 00:45:16;;;;;;;32.13;20.30;;;;;;;6.03;79.78;98102.28;4894580;29;20708;-73
2022/12/29 00:47:43;;;;;;;39.43;21.33;;;;;;;6.04;80.10;98093.72;4877427;29;20223;-72
2022/12/29 00:50:10;;;;;;;34.07;19.60;;;;;;;6.14;79.71;98105.59;4894866;29;20683;-74
2022/12/29 00:52:37;;;;;;;36.33;21.30;;;;;;;6.22;79.87;98096.06;4893914;29;20199;-74
2022/12/29 00:55:04;;;;;;;31.60;19.40;;;;;;;6.29;80.19;98105.41;4894056;29;20198;-74
2022/12/29 00:57:31;;;;;;;29.13;18.03;;;;;;;6.34;79.08;98111.34;4894205;29;20200;-74
2022/12/29 00:59:58;;;;;;;32.03;19.77;;;;;;;6.33;79.38;98110.50;4894425;29;20228;-73
2022/12/29 01:02:25;;;;;;;32.73;20.63;;;;;;;6.27;79.19;98109.72;4894580;29;20266;-73
2022/12/29 01:04:52;;;;;;;34.47;21.37;;;;;;;6.19;79.19;98107.25;4892544;29;20196;-73
2022/12/29 01:07:19;;;;;;;30.93;20.57;;;;;;;6.11;79.42;98090.19;4894380;29;20318;-73
2022/12/29 01:12:43;;;;;;;28.23;17.10;;;;;;;5.90;79.94;98093.00;4894268;29;20638;-73
2022/12/29 01:15:13;;;;;;;24.63;15.63;;;;;;;5.74;80.08;98098.28;4893964;29;20723;-73
2022/12/29 01:17:41;;;;;;;21.13;14.40;;;;;;;5.75;80.43;98104.25;4893969;29;20206;-73
2022/12/29 01:20:09;;;;;;;22.90;14.50;;;;;;;5.73;81.10;98078.56;4893010;29;20189;-72
2022/12/29 01:22:36;;;;;;;22.67;14.60;;;;;;;5.83;80.35;98094.75;4893517;29;20198;-73
2022/12/29 01:25:04;;;;;;;21.50;15.03;;;;;;;5.91;79.87;98093.00;4877544;29;20201;-74
2022/12/29 01:27:31;;;;;;;22.30;14.57;;;;;;;6.02;80.09;98091.13;4893288;29;20709;-73
2022/12/29 01:29:58;;;;;;;25.13;15.33;;;;;;;6.03;79.89;98082.56;4893973;29;20201;-72
2022/12/29 01:32:25;;;;;;;22.03;15.07;;;;;;;5.76;80.06;98064.84;4893707;29;20195;-72
2022/12/29 01:34:52;;;;;;;25.07;16.30;;;;;;;5.72;80.24;98076.88;4892388;29;20596;-75
2022/12/29 01:37:18;;;;;;;24.13;14.77;;;;;;;5.59;81.44;98069.28;4892658;29;20269;-75
2022/12/29 01:39:45;;;;;;;23.23;15.03;;;;;;;5.54;82.28;98055.66;4892019;29;20186;-73
2022/12/29 01:42:17;;;;;;;23.17;15.00;;;;;;;5.44;82.14;98070.28;4893989;29;20700;-74
2022/12/29 01:44:59;;;;;;;22.30;14.90;;;;;;;5.37;82.15;98060.09;4893083;29;20200;-73
2022/12/29 01:48:08;;;;;;;25.67;15.70;;;;;;;5.15;82.61;98050.88;4893544;29;20292;-74
2022/12/29 01:50:41;;;;;;;22.80;14.97;;;;;;;5.26;82.80;98065.31;4893681;29;20284;-73
2022/12/29 01:53:18;;;;;;;25.77;16.63;;;;;;;5.26;82.85;98064.47;4876003;29;20227;-75
2022/12/29 01:55:58;;;;;;;26.03;16.17;;;;;;;5.40;83.31;98065.22;4892333;29;20296;-74
2022/12/29 01:58:31;;;;;;;21.17;14.63;;;;;;;5.38;81.79;98064.38;4893368;29;20196;-74
2022/12/29 02:00:59;;;;;;;28.87;16.50;;;;;;;5.34;82.05;98057.53;4876262;29;20291;-73
2022/12/29 02:03:29;;;;;;;22.90;15.07;;;;;;;5.35;82.54;98060.13;4892198;29;20198;-75
2022/12/29 02:06:08;;;;;;;26.60;16.00;;;;;;;5.46;82.12;98040.28;4875360;29;20207;-74
2022/12/29 02:08:38;;;;;;;23.27;15.47;;;;;;;5.39;81.89;98035.25;4876449;29;20232;-74
2022/12/29 02:11:06;;;;;;;23.47;15.40;;;;;;;5.58;82.28;98054.75;4892635;29;20205;-74
2022/12/29 02:13:34;;;;;;;25.00;16.73;;;;;;;5.61;81.66;98047.00;4892889;29;20729;-73
2022/12/29 02:16:08;;;;;;;24.33;15.40;;;;;;;5.62;80.59;98051.28;4892933;29;20574;-74
2022/12/29 02:18:36;;;;;;;21.40;14.77;;;;;;;5.47;81.69;98041.16;4891305;29;20198;-74
2022/12/29 02:21:22;;;;;;;21.70;14.70;;;;;;;5.35;82.21;98031.88;4891958;29;20721;-74
2022/12/29 02:23:51;;;;;;;24.50;16.17;;;;;;;5.30;82.60;98041.31;4891350;29;20220;-74
2022/12/29 02:26:43;;;;;;;22.40;15.27;;;;;;;5.37;81.84;98036.97;4892902;29;20201;-73
2022/12/29 02:29:41;;;;;;;25.27;14.80;;;;;;;5.41;81.60;98036.09;4892722;29;20287;-75
2022/12/29 02:32:13;;;;;;;20.63;14.17;;;;;;;5.39;81.32;98032.69;4890915;29;20257;-75
2022/12/29 02:34:59;;;;;;;21.97;14.73;;;;;;;5.18;81.86;98031.16;4891682;29;20342;-74
2022/12/29 02:37:41;;;;;;;24.17;15.17;;;;;;;5.07;82.83;98027.00;4891071;29;20621;-72
2022/12/29 02:40:25;;;;;;;22.30;14.87;;;;;;;5.09;82.91;98027.81;4892475;29;20188;-72
2022/12/29 02:43:04;;;;;;;22.27;15.00;;;;;;;5.01;82.50;98030.44;4891322;29;20222;-72
2022/12/29 02:46:03;;;;;;;26.07;15.50;;;;;;;4.83;83.69;98007.50;4890687;29;20230;-73
2022/12/29 02:48:45;;;;;;;24.87;15.43;;;;;;;4.88;83.24;98016.03;4892107;29;20232;-73
2022/12/29 02:51:21;;;;;;;24.63;15.77;;;;;;;4.77;83.44;98010.97;4891183;29;20190;-73
2022/12/29 02:56:33;;;;;;;24.50;16.50;;;;;;;4.49;85.18;98019.69;4875394;29;20204;-72
2022/12/29 02:59:01;;;;;;;24.23;16.43;;;;;;;4.53;85.24;98023.97;4890896;29;20199;-73
2022/12/29 03:02:16;;;;;;;25.80;15.97;;;;;;;4.57;85.08;98009.41;4890843;29;20224;-73
2022/12/29 03:04:44;;;;;;;24.23;15.30;;;;;;;4.72;85.14;97996.44;4891294;29;20285;-71
2022/12/29 03:07:28;;;;;;;24.10;15.37;;;;;;;4.83;83.69;97992.97;4891537;29;20231;-74
2022/12/29 03:10:28;;;;;;;22.20;14.93;;;;;;;4.97;83.05;97999.69;4875284;29;20200;-73
2022/12/29 03:16:15;;;;;;;26.83;17.60;;;;;;;5.05;82.65;97997.91;4871803;29;20273;-73
2022/12/29 03:18:57;;;;;;;32.17;18.53;;;;;;;4.88;82.86;98003.19;4887125;29;20194;-73
2022/12/29 03:22:26;;;;;;;28.47;18.93;;;;;;;4.78;83.77;98004.13;4887562;29;20698;-73
2022/12/29 03:24:24;;;;;;;28.03;17.37;;;;;;;4.66;83.53;97999.06;4887463;29;20192;-74
2022/12/29 03:26:55;;;;;;;27.57;17.40;;;;;;;4.74;83.65;98005.84;4873396;29;20197;-74
2022/12/29 03:29:23;;;;;;;28.97;18.50;;;;;;;4.73;83.28;98004.16;4871871;29;20191;-73
2022/12/29 03:31:53;;;;;;;27.30;18.73;;;;;;;4.71;83.56;97995.63;4871827;29;20222;-72
2022/12/29 03:34:21;;;;;;;24.80;17.40;;;;;;;4.76;82.46;98006.69;4873724;29;20203;-75
2022/12/29 03:36:54;;;;;;;30.43;21.03;;;;;;;4.79;81.75;98003.25;4886788;29;20769;-74
2022/12/29 03:39:23;;;;;;;33.03;20.73;;;;;;;4.75;82.12;98010.13;4873570;29;20721;-73
2022/12/29 03:41:57;;;;;;;40.70;25.23;;;;;;;4.56;82.89;98008.53;4887110;29;20245;-74
2022/12/29 03:44:36;;;;;;;35.43;22.73;;;;;;;4.29;84.13;98008.72;4887316;29;20618;-71
2022/12/29 03:47:04;;;;;;;39.30;21.80;;;;;;;4.11;85.12;98004.53;4871484;29;20241;-74
2022/12/29 03:49:31;;;;;;;31.73;20.23;;;;;;;4.10;85.41;98012.25;4887185;29;20199;-72
2022/12/29 03:51:58;;;;;;;31.47;20.30;;;;;;;3.99;85.56;98014.00;4887456;29;20289;-73
2022/12/29 03:54:26;;;;;;;30.57;18.70;;;;;;;3.92;86.02;98008.03;4886813;29;20201;-73
2022/12/29 03:56:52;;;;;;;30.70;19.03;;;;;;;3.89;86.08;98012.34;4871971;29;20282;-73
2022/12/29 03:59:30;;;;;;;27.93;18.13;;;;;;;3.82;86.38;98000.41;4887054;29;20796;-73
2022/12/29 04:01:57;;;;;;;25.47;18.07;;;;;;;3.94;86.60;98019.13;4887319;29;20254;-73
2022/12/29 04:04:24;;;;;;;31.30;18.17;;;;;;;3.89;86.84;98017.47;4887194;29;20200;-72
2022/12/29 04:06:51;;;;;;;31.27;18.13;;;;;;;3.92;86.65;98012.31;4886675;29;20670;-72
2022/12/29 04:09:18;;;;;;;27.50;18.00;;;;;;;3.86;87.15;98018.31;4887490;29;20229;-72
2022/12/29 04:11:48;;;;;;;28.70;18.67;;;;;;;3.71;87.85;98012.41;4886576;29;20197;-73
2022/12/29 04:14:15;;;;;;;30.80;20.03;;;;;;;3.64;87.97;98013.28;4887073;29;20236;-72
2022/12/29 04:16:44;;;;;;;30.90;19.93;;;;;;;3.62;88.37;97999.63;4886730;29;20273;-72
2022/12/29 04:19:11;;;;;;;29.77;20.07;;;;;;;3.74;88.13;98015.81;4887055;29;20271;-73
2022/12/29 04:21:38;;;;;;;32.57;19.27;;;;;;;3.73;87.86;98010.69;4872584;29;20275;-73
2022/12/29 04:24:08;;;;;;;31.43;18.53;;;;;;;3.61;88.10;98011.56;4886962;29;20862;-73
2022/12/29 04:26:40;;;;;;;30.33;20.57;;;;;;;3.50;88.52;97994.53;4887029;29;20756;-72
2022/12/29 04:29:42;;;;;;;32.27;19.17;;;;;;;3.60;88.68;98014.16;4859704;29;20212;-74
2022/12/29 04:32:30;;;;;;;31.43;19.43;;;;;;;3.78;88.20;98004.69;4875922;29;20196;-73
2022/12/29 04:34:57;;;;;;;40.43;20.97;;;;;;;3.68;87.76;97985.09;4890528;29;20204;-73
2022/12/29 04:37:24;;;;;;;32.83;19.47;;;;;;;3.95;87.41;98012.31;4889847;29;20787;-72
2022/12/29 04:39:51;;;;;;;30.73;19.27;;;;;;;4.08;86.80;98019.09;4890762;29;20217;-73
2022/12/29 04:42:18;;;;;;;30.23;17.97;;;;;;;4.18;86.54;98013.06;4889737;29;20219;-73
2022/12/29 04:44:45;;;;;;;29.43;18.17;;;;;;;4.22;85.43;98009.63;4890478;29;20193;-73
2022/12/29 04:47:19;;;;;;;27.47;17.43;;;;;;;4.13;85.03;98013.09;4874139;29;20224;-74
2022/12/29 04:49:54;;;;;;;26.33;18.00;;;;;;;4.04;84.64;98023.38;4889916;29;20208;-74
2022/12/29 04:52:33;;;;;;;26.50;17.10;;;;;;;4.14;85.01;98013.94;4876218;29;20194;-73
2022/12/29 04:55:00;;;;;;;28.00;17.77;;;;;;;4.17;84.50;98013.03;4875089;29;20200;-72
2022/12/29 04:57:29;;;;;;;31.03;17.63;;;;;;;4.07;84.69;98018.25;4890079;29;20252;-75
2022/12/29 04:59:58;;;;;;;29.27;17.53;;;;;;;4.16;84.20;98019.06;4874115;29;20201;-74
2022/12/29 05:02:25;;;;;;;33.10;16.97;;;;;;;4.00;84.27;98010.56;4889476;29;20208;-75
2022/12/29 05:04:54;;;;;;;26.90;16.60;;;;;;;4.03;84.36;98013.13;4889847;29;20253;-73
2022/12/29 05:07:22;;;;;;;25.40;15.97;;;;;;;4.14;84.46;98030.16;4889494;29;20207;-73
2022/12/29 05:09:50;;;;;;;21.13;15.53;;;;;;;4.10;84.37;98028.47;4890134;29;20191;-73
2022/12/29 05:12:17;;;;;;;21.33;14.03;;;;;;;4.12;83.55;98025.91;4874161;29;20204;-74
2022/12/29 05:14:53;;;;;;;21.27;15.03;;;;;;;3.96;83.56;98022.53;4892824;29;20190;-73
2022/12/29 05:20:44;;;;;;;24.80;15.27;;;;;;;3.38;86.29;98030.41;4892289;29;20202;-75
2022/12/29 05:23:12;;;;;;;25.83;16.53;;;;;;;3.25;87.89;98027.88;4893027;29;20282;-73
2022/12/29 05:25:40;;;;;;;26.47;16.53;;;;;;;3.19;88.27;98027.84;4892028;29;20609;-74
2022/12/29 05:28:15;;;;;;;27.90;15.97;;;;;;;3.14;89.29;98027.03;4892593;29;20317;-72
2022/12/29 05:31:06;;;;;;;27.77;17.37;;;;;;;3.11;89.27;98033.88;4893347;29;20285;-73
2022/12/29 05:33:34;;;;;;;23.33;15.73;;;;;;;3.02;89.75;98033.84;4891084;29;20950;-74
2022/12/29 05:36:06;;;;;;;25.00;15.53;;;;;;;2.99;89.99;98034.72;4874058;29;20202;-76
2022/12/29 05:38:35;;;;;;;27.17;17.30;;;;;;;2.84;90.63;98034.72;4873195;29;20235;-72
2022/12/29 05:41:02;;;;;;;29.93;17.03;;;;;;;2.83;91.44;98027.03;4873696;29;20203;-72
2022/12/29 05:43:41;;;;;;;29.00;17.93;;;;;;;2.91;91.05;98051.75;4874850;29;20697;-72
2022/12/29 05:46:37;;;;;;;27.20;16.93;;;;;;;2.85;91.22;98036.41;4855483;29;20217;-73
2022/12/29 05:49:07;;;;;;;29.00;17.20;;;;;;;2.82;91.20;98035.56;4875123;29;20228;-72
2022/12/29 05:52:43;;;;;;;29.03;17.43;;;;;;;2.90;91.34;98034.72;4857374;29;20276;-72
2022/12/29 05:55:11;;;;;;;30.70;18.27;;;;;;;2.83;90.91;97997.19;4873033;29;20264;-73
2022/12/29 05:57:40;;;;;;;33.40;19.83;;;;;;;3.10;90.54;98033.00;4873725;29;20212;-72
2022/12/29 06:00:11;;;;;;;34.33;18.10;;;;;;;3.09;90.18;98036.41;4872625;29;20185;-71
2022/12/29 06:02:42;;;;;;;30.80;17.57;;;;;;;3.04;90.24;98033.00;4858029;29;20184;-72
2022/12/29 06:05:09;;;;;;;28.37;16.80;;;;;;;3.10;90.37;98043.25;4872696;29;20515;-72
2022/12/29 06:07:38;;;;;;;26.83;15.73;;;;;;;3.20;89.78;98036.41;4857483;29;20272;-73
2022/12/29 06:10:06;;;;;;;29.90;19.13;;;;;;;3.35;89.74;98030.41;4875421;29;20261;-73
2022/12/29 06:12:42;;;;;;;33.77;20.93;;;;;;;3.50;88.21;98049.19;4872654;29;20227;-72
2022/12/29 06:15:09;;;;;;;43.27;22.93;;;;;;;3.59;87.53;98050.84;4873641;29;20207;-72
2022/12/29 06:17:39;;;;;;;39.00;22.03;;;;;;;3.69;87.55;98050.00;4873940;29;20203;-73
2022/12/29 06:20:07;;;;;;;37.67;24.97;;;;;;;3.81;86.70;98052.50;4873126;29;20221;-73
2022/12/29 06:22:34;;;;;;;71.73;38.87;;;;;;;3.83;86.04;98049.06;4872592;29;20327;-74
2022/12/29 06:25:02;;;;;;;50.17;28.43;;;;;;;3.78;86.05;98039.69;4873019;29;20199;-73
2022/12/29 06:27:33;;;;;;;44.43;27.17;;;;;;;3.98;85.25;98040.47;4873194;29;20285;-74
2022/12/29 06:30:01;;;;;;;48.27;26.53;;;;;;;4.09;85.34;98047.28;4873565;29;20200;-73
2022/12/29 06:32:30;;;;;;;36.40;22.30;;;;;;;4.09;84.90;98046.41;4873022;29;20201;-74
2022/12/29 06:35:05;;;;;;;32.70;20.33;;;;;;;4.01;85.04;98051.59;4875067;29;20287;-76
2022/12/29 06:37:37;;;;;;;44.57;21.40;;;;;;;3.92;84.91;98025.97;4875657;29;20200;-75
2022/12/29 06:40:05;;;;;;;38.43;24.57;;;;;;;3.93;84.78;98042.22;4860191;29;20229;-76
2022/12/29 06:42:45;;;;;;;45.67;27.07;;;;;;;4.11;85.01;98050.69;4890318;29;20417;-75
2022/12/29 06:45:33;;;;;;;41.97;26.67;;;;;;;4.25;84.53;98048.03;4882804;29;20298;-76
2022/12/29 06:48:00;;;;;;;55.23;29.07;;;;;;;4.41;83.85;98047.09;4891567;29;20307;-76
2022/12/29 06:50:27;;;;;;;45.30;28.67;;;;;;;4.38;83.41;98047.13;4892590;29;20275;-77
2022/12/29 06:52:54;;;;;;;48.27;28.73;;;;;;;4.56;82.04;98054.72;4890986;29;20199;-75
2022/12/29 06:55:22;;;;;;;44.80;28.03;;;;;;;4.48;81.50;98050.47;4892005;29;20291;-77
2022/12/29 06:57:49;;;;;;;40.00;23.10;;;;;;;4.54;81.61;98050.44;4891355;29;20201;-75
2022/12/29 07:00:16;;;;;;;38.80;24.30;;;;;;;4.38;82.38;98038.56;4891156;29;20696;-75
2022/12/29 07:02:48;;;;;;;31.93;22.63;;;;;;;4.59;81.87;98046.16;4890953;29;20777;-73
2022/12/29 07:05:15;;;;;;;35.57;21.47;;;;;;;4.47;82.03;98048.78;4891154;29;20284;-74
2022/12/29 07:07:43;;;;;;;32.10;20.57;;;;;;;4.39;81.65;98045.44;4891626;29;20201;-73
2022/12/29 07:10:10;;;;;;;30.63;20.10;;;;;;;4.23;81.37;98046.34;4891941;29;20197;-74
2022/12/29 07:12:37;;;;;;;30.27;20.00;;;;;;;4.21;82.32;98056.59;4892067;29;20251;-74
2022/12/29 07:15:04;;;;;;;32.63;19.83;;;;;;;4.19;82.35;98062.59;4895996;29;20202;-72
2022/12/29 07:17:31;;;;;;;30.30;18.40;;;;;;;4.19;81.99;98067.72;4891103;29;20202;-73
2022/12/29 07:19:58;;;;;;;29.90;19.00;;;;;;;4.14;82.85;98085.72;4890767;29;20273;-74
2022/12/29 07:22:25;;;;;;;28.47;17.83;;;;;;;4.29;82.57;98065.09;4887313;29;20204;-73
2022/12/29 07:24:52;;;;;;;27.53;17.90;;;;;;;4.46;82.20;98065.88;4891095;29;20198;-74
2022/12/29 07:27:19;;;;;;;24.67;16.43;;;;;;;4.34;82.18;98068.53;4891247;29;20300;-73
2022/12/29 07:29:46;;;;;;;29.77;17.70;;;;;;;4.56;81.22;98064.13;4890251;29;20270;-73
2022/12/29 07:32:13;;;;;;;23.40;15.90;;;;;;;4.46;81.90;98075.28;4891650;29;20224;-74
2022/12/29 07:34:40;;;;;;;25.67;16.47;;;;;;;4.47;82.39;98070.13;4873822;29;20198;-74
2022/12/29 07:37:06;;;;;;;25.23;15.77;;;;;;;4.49;81.81;98078.69;4891818;29;20700;-74
2022/12/29 07:39:33;;;;;;;24.83;15.50;;;;;;;4.46;82.96;98070.16;4891015;29;20202;-74
2022/12/29 07:42:00;;;;;;;23.90;14.90;;;;;;;4.47;83.04;98075.28;4890512;29;20195;-74
2022/12/29 07:44:38;;;;;;;23.90;14.40;;;;;;;4.55;83.46;98073.53;4889475;29;20276;-73
2022/12/29 07:47:23;;;;;;;22.10;14.30;;;;;;;4.67;83.80;98073.47;4891224;29;20192;-72
2022/12/29 07:49:50;;;;;;;21.63;14.37;;;;;;;4.76;83.42;98078.53;4889896;29;20224;-73
2022/12/29 07:52:17;;;;;;;23.07;14.30;;;;;;;4.77;83.81;98067.41;4890835;29;20275;-74
2022/12/29 07:54:45;;;;;;;20.60;14.67;;;;;;;5.06;82.72;98076.59;4891769;29;20733;-74
2022/12/29 07:57:12;;;;;;;22.33;13.50;;;;;;;5.22;83.11;98065.34;4890691;29;20240;-72
2022/12/29 07:59:39;;;;;;;24.10;15.10;;;;;;;5.23;82.03;98067.06;4891782;29;20645;-73
2022/12/29 08:02:09;;;;;;;18.23;12.27;;;;;;;5.46;81.47;98075.44;4873752;29;20256;-72
2022/12/29 08:04:36;;;;;;;18.23;13.37;;;;;;;5.37;81.15;98068.66;4890132;29;20592;-75
2022/12/29 08:07:03;;;;;;;20.63;13.93;;;;;;;5.37;81.83;98078.94;4894836;29;20596;-74
2022/12/29 08:09:30;;;;;;;18.97;12.10;;;;;;;5.45;81.61;98082.28;4876320;29;20620;-72
2022/12/29 08:11:57;;;;;;;20.50;12.30;;;;;;;5.66;81.29;98071.81;4894965;29;20224;-72
2022/12/29 08:14:24;;;;;;;18.90;11.13;;;;;;;5.54;80.27;98053.91;4893698;29;20309;-74
2022/12/29 08:16:51;;;;;;;15.17;10.20;;;;;;;5.78;80.28;98070.81;4894886;29;20272;-74
2022/12/29 08:19:18;;;;;;;20.27;14.03;;;;;;;5.82;80.14;98077.63;4893610;29;20198;-75
2022/12/29 08:21:45;;;;;;;23.93;14.73;;;;;;;6.04;79.42;98063.69;4876421;29;20209;-73
2022/12/29 08:24:12;;;;;;;26.70;14.43;;;;;;;6.18;77.98;98077.22;4894296;29;20200;-73
2022/12/29 08:26:39;;;;;;;27.57;16.80;;;;;;;6.23;77.98;98062.63;4877302;29;20258;-74
2022/12/29 08:29:06;;;;;;;32.50;17.90;;;;;;;6.56;77.23;98074.19;4894521;29;20233;-74
2022/12/29 08:31:33;;;;;;;26.73;16.07;;;;;;;6.66;76.94;98077.50;4893788;29;20538;-74
2022/12/29 08:34:01;;;;;;;23.93;14.43;;;;;;;6.68;77.27;98074.00;4894588;29;20594;-73
2022/12/29 08:36:28;;;;;;;22.40;13.47;;;;;;;6.90;76.42;98066.84;4893454;29;20192;-73
2022/12/29 08:38:55;;;;;;;19.03;11.40;;;;;;;6.80;75.82;98055.00;4893657;29;20187;-74
2022/12/29 08:41:22;;;;;;;16.93;11.50;;;;;;;6.90;75.66;98059.97;4893785;29;20290;-73
2022/12/29 08:43:50;;;;;;;21.43;13.00;;;;;;;7.05;74.24;98061.44;4894353;29;20192;-72
2022/12/29 08:46:19;;;;;;;18.27;11.67;;;;;;;7.09;74.77;98060.56;4894115;29;20289;-74
2022/12/29 08:48:46;;;;;;;22.80;13.57;;;;;;;7.10;74.00;98055.38;4893429;29;20318;-73
2022/12/29 08:51:13;;;;;;;19.87;12.20;;;;;;;7.06;75.45;98060.59;4877000;29;20592;-75
2022/12/29 08:53:40;;;;;;;18.67;12.07;;;;;;;7.24;74.68;98048.25;4893069;29;20285;-74
2022/12/29 08:56:09;;;;;;;19.67;13.73;;;;;;;7.09;74.24;98040.78;4877070;29;20290;-73
2022/12/29 08:58:44;;;;;;;17.03;11.53;;;;;;;7.24;75.00;98045.69;4891977;29;20760;-73
2022/12/29 09:01:11;;;;;;;19.53;12.67;;;;;;;7.32;73.41;98046.41;4892216;29;20282;-74
2022/12/29 09:03:39;;;;;;;22.77;14.97;;;;;;;7.33;73.82;98040.41;4894010;29;20191;-74
2022/12/29 09:06:25;;;;;;;24.17;13.50;;;;;;;7.44;74.12;98032.44;4893172;29;20660;-74
2022/12/29 09:08:55;;;;;;;24.53;17.37;;;;;;;7.49;74.46;98020.34;4892724;29;20315;-76
2022/12/29 09:11:24;;;;;;;22.27;15.83;;;;;;;7.71;73.20;98015.63;4892533;29;20306;-73
2022/12/29 09:13:52;;;;;;;20.10;13.57;;;;;;;7.93;73.46;98022.09;4875955;29;20639;-74
2022/12/29 09:16:22;;;;;;;24.03;15.30;;;;;;;7.98;72.07;98026.28;4891326;29;20322;-75
2022/12/29 09:18:50;;;;;;;21.40;13.13;;;;;;;8.05;72.06;98012.41;4892382;29;20295;-73
2022/12/29 09:21:17;;;;;;;19.93;12.53;;;;;;;8.03;71.27;97988.38;4876021;29;20604;-74
2022/12/29 09:23:44;;;;;;;16.33;11.57;;;;;;;8.20;71.42;98021.56;4875523;29;20226;-75
2022/12/29 09:26:11;;;;;;;20.30;13.17;;;;;;;8.23;70.82;98001.69;4893761;29;20205;-72
2022/12/29 09:28:38;;;;;;;21.63;12.87;;;;;;;8.34;70.48;98009.25;4892115;29;20227;-72
2022/12/29 09:31:05;;;;;;;15.57;10.57;;;;;;;8.30;70.73;98007.59;4893429;29;20207;-73
2022/12/29 09:33:35;;;;;;;15.50;11.07;;;;;;;8.37;69.89;97997.97;4891398;29;20223;-73
2022/12/29 09:36:03;;;;;;;18.67;12.10;;;;;;;8.55;69.73;97997.59;4890530;29;20227;-73
2022/12/29 09:38:30;;;;;;;16.60;10.70;;;;;;;8.62;69.53;97999.13;4892711;29;20195;-72
2022/12/29 09:41:29;;;;;;;14.63;11.37;;;;;;;8.64;69.08;97997.38;4885641;29;20200;-73
2022/12/29 09:44:08;;;;;;;18.50;11.20;;;;;;;8.76;68.81;97999.66;4886668;29;20195;-75
2022/12/29 09:46:40;;;;;;;21.50;13.70;;;;;;;8.81;68.95;97984.91;4893070;29;20195;-73
2022/12/29 09:49:45;;;;;;;18.83;12.10;;;;;;;8.91;67.75;97983.81;4874484;29;20231;-73
2022/12/29 09:52:21;;;;;;;17.53;10.70;;;;;;;9.01;66.54;97965.47;4891136;29;20218;-72
2022/12/29 09:55:19;;;;;;;16.27;11.43;;;;;;;9.16;66.60;97972.00;4872590;29;20638;-73
2022/12/29 09:57:52;;;;;;;15.33;9.93;;;;;;;9.33;65.97;97974.16;4884588;29;20208;-74
2022/12/29 10:00:33;;;;;;;16.47;9.80;;;;;;;8.99;66.53;97963.81;4891919;29;20195;-72
2022/12/29 10:03:14;;;;;;;17.47;10.33;;;;;;;9.15;66.67;97970.28;4890447;29;20285;-73
2022/12/29 10:05:44;;;;;;;15.00;10.17;;;;;;;9.22;66.15;97966.66;4890752;29;20204;-73
2022/12/29 10:08:26;;;;;;;14.77;9.70;;;;;;;9.26;65.87;97957.94;4874360;29;20199;-73
2022/12/29 10:11:29;;;;;;;13.30;9.87;;;;;;;9.18;66.08;97959.88;4892003;29;20191;-73
2022/12/29 10:14:36;;;;;;;31.70;19.47;;;;;;;9.37;65.42;97955.94;4890735;29;20281;-73
2022/12/29 10:17:19;;;;;;;19.57;11.53;;;;;;;9.39;65.22;97963.66;4890700;29;20196;-76
2022/12/29 10:19:57;;;;;;;13.30;10.13;;;;;;;9.49;64.96;97953.03;4891310;29;20334;-74
2022/12/29 10:22:36;;;;;;;12.90;9.80;;;;;;;9.50;64.58;97952.13;4891520;29;20224;-72
2022/12/29 10:25:14;;;;;;;13.83;10.07;;;;;;;9.31;65.34;97935.44;4891391;29;20233;-74
2022/12/29 10:27:48;;;;;;;17.60;12.00;;;;;;;9.42;65.58;97941.13;4890813;29;20238;-73
2022/12/29 10:30:16;;;;;;;15.27;10.63;;;;;;;9.63;64.41;97939.72;4874196;29;20266;-73
2022/12/29 10:33:01;;;;;;;15.17;11.07;;;;;;;9.62;64.75;97933.69;4890137;29;20632;-76
2022/12/29 10:35:40;;;;;;;16.57;11.33;;;;;;;9.62;64.55;97930.28;4874920;29;20199;-73
2022/12/29 10:38:10;;;;;;;19.80;12.83;;;;;;;9.85;64.13;97936.47;4890538;29;20197;-75
2022/12/29 10:40:43;;;;;;;15.33;10.67;;;;;;;9.78;63.82;97916.88;4891589;29;20200;-73
2022/12/29 10:43:25;;;;;;;13.03;8.43;;;;;;;9.93;62.55;97910.41;4889834;29;20286;-75
2022/12/29 10:45:57;;;;;;;10.83;7.87;;;;;;;10.11;61.51;97924.56;4890995;29;20220;-75
2022/12/29 10:48:31;;;;;;;10.97;7.97;;;;;;;10.16;61.26;97925.28;4890141;29;20195;-73
2022/12/29 10:51:03;;;;;;;15.33;10.50;;;;;;;10.06;61.76;97916.91;4890555;29;20298;-73
2022/12/29 10:54:13;;;;;;;15.63;10.57;;;;;;;10.07;61.97;97922.94;4874874;29;20200;-74
2022/12/29 10:57:36;;;;;;;12.90;8.83;;;;;;;10.13;61.39;97917.59;4889488;29;20215;-73
2022/12/29 11:00:22;;;;;;;11.17;8.73;;;;;;;9.97;61.64;97900.81;4855534;29;20226;-73
2022/12/29 11:03:09;;;;;;;17.37;11.30;;;;;;;10.16;61.20;97891.63;4890802;29;20197;-74
2022/12/29 11:05:55;;;;;;;17.30;10.10;;;;;;;10.39;60.84;97899.53;4866511;29;20208;-74
2022/12/29 11:08:27;;;;;;;18.37;10.17;;;;;;;10.48;61.09;97894.06;4890035;29;20270;-72
2022/12/29 11:11:03;;;;;;;14.57;10.03;;;;;;;10.44;60.72;97890.72;4891556;29;20762;-73
2022/12/29 11:13:33;;;;;;;15.57;10.63;;;;;;;10.76;60.05;97884.50;4889198;29;20287;-75
2022/12/29 11:16:05;;;;;;;15.77;11.70;;;;;;;10.72;60.13;97887.22;4874400;29;20201;-75
2022/12/29 11:18:39;;;;;;;11.70;8.63;;;;;;;10.48;61.00;97879.38;4891829;29;20197;-72
2022/12/29 11:21:27;;;;;;;13.20;11.23;;;;;;;10.66;60.40;97875.34;4891523;29;20201;-76
2022/12/29 11:24:03;;;;;;;13.30;9.77;;;;;;;10.76;60.29;97884.50;4873284;29;20200;-75
2022/12/29 11:26:31;;;;;;;13.40;10.33;;;;;;;10.76;59.79;97881.09;4871595;29;20191;-74
2022/12/29 11:29:16;;;;;;;15.27;9.33;;;;;;;10.95;59.56;97884.72;4873015;29;20197;-75
2022/12/29 11:31:45;;;;;;;11.40;8.40;;;;;;;11.05;58.92;97886.09;4855948;29;20237;-74
2022/12/29 11:34:25;;;;;;;13.33;9.93;;;;;;;11.18;58.43;97879.63;4871334;29;20190;-75
2022/12/29 11:37:03;;;;;;;17.37;11.20;;;;;;;11.18;58.69;97880.47;4856067;29;20669;-72
2022/12/29 11:39:39;;;;;;;16.07;11.60;;;;;;;11.17;58.97;97870.97;4854330;29;20210;-74
2022/12/29 11:42:13;;;;;;;17.30;11.27;;;;;;;11.20;59.20;97873.47;4887250;29;20287;-73
2022/12/29 11:44:44;;;;;;;12.57;9.33;;;;;;;11.05;58.79;97870.56;4890707;29;20255;-73
2022/12/29 11:47:25;;;;;;;11.60;7.83;;;;;;;10.98;58.80;97851.81;4889544;29;20284;-74
2022/12/29 11:49:55;;;;;;;13.50;8.60;;;;;;;11.10;58.59;97864.34;4890736;29;20256;-73
2022/12/29 11:52:32;;;;;;;10.83;7.67;;;;;;;10.92;59.02;97843.38;4889858;29;20193;-75
2022/12/29 11:55:01;;;;;;;9.27;7.37;;;;;;;10.77;59.78;97855.13;4890862;29;20193;-73
2022/12/29 11:57:31;;;;;;;11.07;8.03;;;;;;;10.93;59.71;97868.38;4873043;29;20215;-72
2022/12/29 12:00:01;;;;;;;13.47;8.73;;;;;;;10.90;59.95;97865.91;4889722;29;20661;-74
2022/12/29 12:02:44;;;;;;;17.03;9.83;;;;;;;11.05;59.89;97863.63;4891741;29;20291;-74
2022/12/29 12:05:26;;;;;;;12.73;9.67;;;;;;;11.01;59.73;97859.47;4889866;29;20193;-73
2022/12/29 12:08:20;;;;;;;10.67;8.63;;;;;;;10.99;59.52;97847.44;4874282;29;20209;-74
2022/12/29 12:10:58;;;;;;;14.43;8.87;;;;;;;10.88;60.10;97860.75;4888954;29;20702;-74
2022/12/29 12:13:31;;;;;;;11.37;8.60;;;;;;;10.98;60.18;97854.41;4880891;29;20232;-74
2022/12/29 12:16:12;;;;;;;16.20;9.73;;;;;;;11.02;60.08;97848.22;4873195;29;20299;-74
2022/12/29 12:18:42;;;;;;;14.63;8.50;;;;;;;10.97;59.82;97844.91;4888111;29;20201;-71
2022/12/29 12:21:28;;;;;;;10.70;8.83;;;;;;;11.17;59.53;97847.66;4890727;29;20290;-72
2022/12/29 12:24:05;;;;;;;12.73;9.43;;;;;;;11.08;59.55;97836.78;4891068;29;20284;-72
2022/12/29 12:26:59;;;;;;;15.90;9.70;;;;;;;10.96;60.05;97829.44;4889795;29;20213;-73
2022/12/29 12:29:38;;;;;;;14.53;9.03;;;;;;;11.15;59.78;97830.44;4889467;29;20328;-72